sensor_id;sensor_type;location;lat;lon;timestamp;P1;durP1;ratioP1;P2;durP2;ratioP2
38805;SDS011;25635;51.146;17.162;2023-02-28T00:00:31;44.90;;;23.40;;
38805;SDS011;25635;51.146;17.162;2023-02-28T00:03:16;49.70;;;22.40;;
38805;SDS011;25635;51.146;17.162;2023-02-28T00:05:42;53.70;;;25.40;;
38805;SDS011;25635;51.146;17.162;2023-02-28T00:08:08;54.90;;;25.10;;
38805;SDS011;25635;51.146;17.162;2023-02-28T00:10:34;51.00;;;25.00;;
38805;SDS011;25635;51.146;17.162;2023-02-28T00:13:02;52.50;;;24.10;;
38805;SDS011;25635;51.146;17.162;2023-02-28T00:15:30;44.80;;;22.80;;
38805;SDS011;25635;51.146;17.162;2023-02-28T00:17:57;47.60;;;21.60;;
38805;SDS011;25635;51.146;17.162;2023-02-28T00:20:23;48.10;;;21.00;;
38805;SDS011;25635;51.146;17.162;2023-02-28T00:22:50;42.50;;;20.10;;
38805;SDS011;25635;51.146;17.162;2023-02-28T00:25:19;42.00;;;20.80;;
38805;SDS011;25635;51.146;17.162;2023-02-28T00:27:47;39.30;;;19.40;;
38805;SDS011;25635;51.146;17.162;2023-02-28T00:30:15;44.80;;;19.60;;
38805;SDS011;25635;51.146;17.162;2023-02-28T00:32:42;40.10;;;20.00;;
38805;SDS011;25635;51.146;17.162;2023-02-28T00:35:09;41.30;;;20.20;;
38805;SDS011;25635;51.146;17.162;2023-02-28T00:37:36;40.10;;;19.80;;
38805;SDS011;25635;51.146;17.162;2023-02-28T00:40:02;41.40;;;19.50;;
38805;SDS011;25635;51.146;17.162;2023-02-28T00:42:33;37.00;;;18.90;;
38805;SDS011;25635;51.146;17.162;2023-02-28T00:45:00;39.90;;;20.00;;
38805;SDS011;25635;51.146;17.162;2023-02-28T00:47:26;36.20;;;18.60;;
38805;SDS011;25635;51.146;17.162;2023-02-28T00:49:52;35.90;;;18.60;;
38805;SDS011;25635;51.146;17.162;2023-02-28T00:52:18;37.20;;;19.10;;
38805;SDS011;25635;51.146;17.162;2023-02-28T00:54:44;38.30;;;19.40;;
38805;SDS011;25635;51.146;17.162;2023-02-28T00:57:10;36.00;;;18.40;;
38805;SDS011;25635;51.146;17.162;2023-02-28T00:59:36;35.60;;;18.10;;
38805;SDS011;25635;51.146;17.162;2023-02-28T01:02:02;37.40;;;19.50;;
38805;SDS011;25635;51.146;17.162;2023-02-28T01:04:28;34.30;;;17.80;;
38805;SDS011;25635;51.146;17.162;2023-02-28T01:06:54;34.60;;;17.90;;
38805;SDS011;25635;51.146;17.162;2023-02-28T01:09:20;36.10;;;17.10;;
38805;SDS011;25635;51.146;17.162;2023-02-28T01:11:46;38.10;;;19.20;;
38805;SDS011;25635;51.146;17.162;2023-02-28T01:14:17;38.30;;;19.90;;
38805;SDS011;25635;51.146;17.162;2023-02-28T01:16:44;39.10;;;20.30;;
38805;SDS011;25635;51.146;17.162;2023-02-28T01:19:10;36.00;;;19.30;;
38805;SDS011;25635;51.146;17.162;2023-02-28T01:21:36;37.70;;;20.40;;
38805;SDS011;25635;51.146;17.162;2023-02-28T01:24:02;36.50;;;19.20;;
38805;SDS011;25635;51.146;17.162;2023-02-28T01:26:30;38.10;;;19.40;;
38805;SDS011;25635;51.146;17.162;2023-02-28T01:28:56;39.80;;;20.00;;
38805;SDS011;25635;51.146;17.162;2023-02-28T01:31:22;43.10;;;20.10;;
38805;SDS011;25635;51.146;17.162;2023-02-28T01:33:49;40.40;;;20.50;;
38805;SDS011;25635;51.146;17.162;2023-02-28T01:36:17;34.50;;;19.10;;
38805;SDS011;25635;51.146;17.162;2023-02-28T01:38:44;39.90;;;19.40;;
38805;SDS011;25635;51.146;17.162;2023-02-28T01:41:18;36.30;;;20.20;;
38805;SDS011;25635;51.146;17.162;2023-02-28T01:46:15;35.20;;;18.20;;
38805;SDS011;25635;51.146;17.162;2023-02-28T01:48:42;39.20;;;19.60;;
38805;SDS011;25635;51.146;17.162;2023-02-28T01:51:27;36.40;;;17.80;;
38805;SDS011;25635;51.146;17.162;2023-02-28T01:54:02;37.20;;;19.40;;
38805;SDS011;25635;51.146;17.162;2023-02-28T01:56:41;36.10;;;19.80;;
38805;SDS011;25635;51.146;17.162;2023-02-28T01:59:33;44.80;;;21.80;;
38805;SDS011;25635;51.146;17.162;2023-02-28T02:02:03;42.30;;;21.00;;
38805;SDS011;25635;51.146;17.162;2023-02-28T02:04:35;47.80;;;23.50;;
38805;SDS011;25635;51.146;17.162;2023-02-28T02:07:05;52.90;;;24.80;;
38805;SDS011;25635;51.146;17.162;2023-02-28T02:09:31;54.40;;;25.20;;
38805;SDS011;25635;51.146;17.162;2023-02-28T02:11:57;40.10;;;21.90;;
38805;SDS011;25635;51.146;17.162;2023-02-28T02:17:02;44.20;;;22.20;;
38805;SDS011;25635;51.146;17.162;2023-02-28T02:25:28;47.10;;;23.20;;
38805;SDS011;25635;51.146;17.162;2023-02-28T02:36:36;47.00;;;23.10;;
38805;SDS011;25635;51.146;17.162;2023-02-28T02:39:13;45.90;;;22.80;;
38805;SDS011;25635;51.146;17.162;2023-02-28T02:41:54;48.50;;;24.10;;
38805;SDS011;25635;51.146;17.162;2023-02-28T02:47:06;48.00;;;22.80;;
38805;SDS011;25635;51.146;17.162;2023-02-28T02:49:36;42.20;;;22.20;;
38805;SDS011;25635;51.146;17.162;2023-02-28T02:52:06;43.50;;;22.30;;
38805;SDS011;25635;51.146;17.162;2023-02-28T02:54:35;42.70;;;22.10;;
38805;SDS011;25635;51.146;17.162;2023-02-28T02:57:05;36.10;;;18.70;;
38805;SDS011;25635;51.146;17.162;2023-02-28T02:59:35;31.20;;;16.90;;
38805;SDS011;25635;51.146;17.162;2023-02-28T03:02:04;39.20;;;18.50;;
38805;SDS011;25635;51.146;17.162;2023-02-28T03:04:46;37.10;;;18.50;;
38805;SDS011;25635;51.146;17.162;2023-02-28T03:07:18;34.40;;;18.10;;
38805;SDS011;25635;51.146;17.162;2023-02-28T03:09:50;36.70;;;18.60;;
38805;SDS011;25635;51.146;17.162;2023-02-28T03:12:22;35.20;;;17.60;;
38805;SDS011;25635;51.146;17.162;2023-02-28T03:14:56;34.50;;;17.80;;
38805;SDS011;25635;51.146;17.162;2023-02-28T03:23:17;36.80;;;18.40;;
38805;SDS011;25635;51.146;17.162;2023-02-28T03:28:31;30.60;;;17.30;;
38805;SDS011;25635;51.146;17.162;2023-02-28T03:33:38;33.70;;;16.80;;
38805;SDS011;25635;51.146;17.162;2023-02-28T03:36:22;33.20;;;16.60;;
38805;SDS011;25635;51.146;17.162;2023-02-28T03:38:59;30.30;;;15.60;;
38805;SDS011;25635;51.146;17.162;2023-02-28T03:41:36;32.20;;;15.60;;
38805;SDS011;25635;51.146;17.162;2023-02-28T03:44:13;34.70;;;16.90;;
38805;SDS011;25635;51.146;17.162;2023-02-28T03:46:45;31.00;;;17.00;;
38805;SDS011;25635;51.146;17.162;2023-02-28T03:49:19;26.40;;;14.90;;
38805;SDS011;25635;51.146;17.162;2023-02-28T03:51:48;32.20;;;16.20;;
38805;SDS011;25635;51.146;17.162;2023-02-28T03:54:18;32.60;;;17.50;;
38805;SDS011;25635;51.146;17.162;2023-02-28T03:56:59;32.70;;;16.80;;
38805;SDS011;25635;51.146;17.162;2023-02-28T03:59:35;31.70;;;16.90;;
38805;SDS011;25635;51.146;17.162;2023-02-28T04:02:05;32.90;;;17.70;;
38805;SDS011;25635;51.146;17.162;2023-02-28T04:04:31;33.70;;;16.90;;
38805;SDS011;25635;51.146;17.162;2023-02-28T04:07:01;34.00;;;17.50;;
38805;SDS011;25635;51.146;17.162;2023-02-28T04:09:29;33.90;;;17.20;;
38805;SDS011;25635;51.146;17.162;2023-02-28T04:11:55;28.80;;;16.40;;
38805;SDS011;25635;51.146;17.162;2023-02-28T04:14:21;28.10;;;15.70;;
38805;SDS011;25635;51.146;17.162;2023-02-28T04:16:48;34.30;;;16.50;;
38805;SDS011;25635;51.146;17.162;2023-02-28T04:19:14;29.00;;;16.60;;
38805;SDS011;25635;51.146;17.162;2023-02-28T04:21:42;30.70;;;16.80;;
38805;SDS011;25635;51.146;17.162;2023-02-28T04:24:10;31.80;;;16.30;;
38805;SDS011;25635;51.146;17.162;2023-02-28T04:26:40;37.60;;;18.30;;
38805;SDS011;25635;51.146;17.162;2023-02-28T04:29:09;34.60;;;17.70;;
38805;SDS011;25635;51.146;17.162;2023-02-28T04:31:37;31.40;;;17.10;;
38805;SDS011;25635;51.146;17.162;2023-02-28T04:34:03;31.50;;;18.00;;
38805;SDS011;25635;51.146;17.162;2023-02-28T04:36:29;36.40;;;19.00;;
38805;SDS011;25635;51.146;17.162;2023-02-28T04:38:55;32.30;;;17.10;;
38805;SDS011;25635;51.146;17.162;2023-02-28T04:41:22;33.00;;;16.70;;
38805;SDS011;25635;51.146;17.162;2023-02-28T04:43:50;35.10;;;18.50;;
38805;SDS011;25635;51.146;17.162;2023-02-28T04:46:18;33.60;;;18.30;;
38805;SDS011;25635;51.146;17.162;2023-02-28T04:48:45;36.50;;;17.80;;
38805;SDS011;25635;51.146;17.162;2023-02-28T04:51:12;34.60;;;17.70;;
38805;SDS011;25635;51.146;17.162;2023-02-28T04:53:39;31.70;;;16.30;;
38805;SDS011;25635;51.146;17.162;2023-02-28T04:56:07;31.20;;;17.00;;
38805;SDS011;25635;51.146;17.162;2023-02-28T04:58:35;35.00;;;18.20;;
38805;SDS011;25635;51.146;17.162;2023-02-28T05:01:02;32.90;;;16.70;;
38805;SDS011;25635;51.146;17.162;2023-02-28T05:03:42;32.00;;;17.30;;
38805;SDS011;25635;51.146;17.162;2023-02-28T05:06:09;32.80;;;17.40;;
38805;SDS011;25635;51.146;17.162;2023-02-28T05:08:36;35.30;;;18.40;;
38805;SDS011;25635;51.146;17.162;2023-02-28T05:11:05;36.70;;;18.70;;
38805;SDS011;25635;51.146;17.162;2023-02-28T05:13:32;37.20;;;19.00;;
38805;SDS011;25635;51.146;17.162;2023-02-28T05:15:58;34.20;;;17.90;;
38805;SDS011;25635;51.146;17.162;2023-02-28T05:18:24;36.00;;;18.70;;
38805;SDS011;25635;51.146;17.162;2023-02-28T05:20:50;37.30;;;18.10;;
38805;SDS011;25635;51.146;17.162;2023-02-28T05:23:19;31.20;;;17.30;;
38805;SDS011;25635;51.146;17.162;2023-02-28T05:28:22;33.90;;;18.60;;
38805;SDS011;25635;51.146;17.162;2023-02-28T05:30:49;33.50;;;18.40;;
38805;SDS011;25635;51.146;17.162;2023-02-28T05:33:15;31.60;;;17.40;;
38805;SDS011;25635;51.146;17.162;2023-02-28T05:35:44;34.60;;;17.70;;
38805;SDS011;25635;51.146;17.162;2023-02-28T05:38:09;29.80;;;17.60;;
38805;SDS011;25635;51.146;17.162;2023-02-28T05:40:37;33.20;;;18.30;;
38805;SDS011;25635;51.146;17.162;2023-02-28T05:43:05;32.20;;;18.40;;
38805;SDS011;25635;51.146;17.162;2023-02-28T05:45:31;35.40;;;18.60;;
38805;SDS011;25635;51.146;17.162;2023-02-28T05:47:57;34.40;;;18.40;;
38805;SDS011;25635;51.146;17.162;2023-02-28T05:50:23;34.30;;;19.30;;
38805;SDS011;25635;51.146;17.162;2023-02-28T05:52:50;33.60;;;18.70;;
38805;SDS011;25635;51.146;17.162;2023-02-28T05:55:16;34.20;;;18.10;;
38805;SDS011;25635;51.146;17.162;2023-02-28T05:57:43;34.80;;;17.90;;
38805;SDS011;25635;51.146;17.162;2023-02-28T06:00:09;35.70;;;18.10;;
38805;SDS011;25635;51.146;17.162;2023-02-28T06:02:36;30.60;;;17.60;;
38805;SDS011;25635;51.146;17.162;2023-02-28T06:05:02;33.30;;;16.50;;
38805;SDS011;25635;51.146;17.162;2023-02-28T06:07:28;34.40;;;17.90;;
38805;SDS011;25635;51.146;17.162;2023-02-28T06:09:53;37.30;;;19.30;;
38805;SDS011;25635;51.146;17.162;2023-02-28T06:12:20;40.00;;;19.90;;
38805;SDS011;25635;51.146;17.162;2023-02-28T06:14:45;42.10;;;20.70;;
38805;SDS011;25635;51.146;17.162;2023-02-28T06:17:11;40.10;;;21.40;;
38805;SDS011;25635;51.146;17.162;2023-02-28T06:19:38;37.40;;;20.30;;
38805;SDS011;25635;51.146;17.162;2023-02-28T06:22:06;36.50;;;19.00;;
38805;SDS011;25635;51.146;17.162;2023-02-28T06:24:32;36.40;;;18.90;;
38805;SDS011;25635;51.146;17.162;2023-02-28T06:26:59;37.40;;;18.60;;
38805;SDS011;25635;51.146;17.162;2023-02-28T06:29:33;34.50;;;17.70;;
38805;SDS011;25635;51.146;17.162;2023-02-28T06:32:00;32.70;;;17.90;;
38805;SDS011;25635;51.146;17.162;2023-02-28T06:34:27;38.60;;;20.00;;
38805;SDS011;25635;51.146;17.162;2023-02-28T06:36:53;32.70;;;18.00;;
38805;SDS011;25635;51.146;17.162;2023-02-28T06:39:19;27.90;;;16.10;;
38805;SDS011;25635;51.146;17.162;2023-02-28T06:41:45;34.60;;;18.50;;
38805;SDS011;25635;51.146;17.162;2023-02-28T06:44:14;36.40;;;19.00;;
38805;SDS011;25635;51.146;17.162;2023-02-28T06:46:42;38.80;;;20.90;;
38805;SDS011;25635;51.146;17.162;2023-02-28T06:49:09;40.00;;;21.80;;
38805;SDS011;25635;51.146;17.162;2023-02-28T06:51:36;44.00;;;23.20;;
38805;SDS011;25635;51.146;17.162;2023-02-28T06:54:04;38.30;;;21.50;;
38805;SDS011;25635;51.146;17.162;2023-02-28T06:56:31;39.40;;;21.80;;
38805;SDS011;25635;51.146;17.162;2023-02-28T06:58:57;40.00;;;21.40;;
38805;SDS011;25635;51.146;17.162;2023-02-28T07:01:23;33.10;;;18.40;;
38805;SDS011;25635;51.146;17.162;2023-02-28T07:03:50;34.10;;;17.90;;
38805;SDS011;25635;51.146;17.162;2023-02-28T07:06:18;27.20;;;16.10;;
38805;SDS011;25635;51.146;17.162;2023-02-28T07:08:45;28.40;;;15.40;;
38805;SDS011;25635;51.146;17.162;2023-02-28T07:11:11;25.30;;;13.80;;
38805;SDS011;25635;51.146;17.162;2023-02-28T07:13:37;22.50;;;13.40;;
38805;SDS011;25635;51.146;17.162;2023-02-28T07:16:04;25.20;;;14.90;;
38805;SDS011;25635;51.146;17.162;2023-02-28T07:18:32;28.20;;;14.80;;
38805;SDS011;25635;51.146;17.162;2023-02-28T07:20:58;34.50;;;17.40;;
38805;SDS011;25635;51.146;17.162;2023-02-28T07:23:24;33.60;;;17.30;;
38805;SDS011;25635;51.146;17.162;2023-02-28T07:25:50;27.40;;;16.10;;
38805;SDS011;25635;51.146;17.162;2023-02-28T07:28:16;22.50;;;13.70;;
38805;SDS011;25635;51.146;17.162;2023-02-28T07:30:42;25.00;;;13.50;;
38805;SDS011;25635;51.146;17.162;2023-02-28T07:33:08;21.00;;;12.10;;
38805;SDS011;25635;51.146;17.162;2023-02-28T07:35:34;21.10;;;12.80;;
38805;SDS011;25635;51.146;17.162;2023-02-28T07:38:00;17.70;;;11.30;;
38805;SDS011;25635;51.146;17.162;2023-02-28T07:40:26;17.10;;;10.30;;
38805;SDS011;25635;51.146;17.162;2023-02-28T07:42:52;14.90;;;9.00;;
38805;SDS011;25635;51.146;17.162;2023-02-28T08:04:27;18.00;;;11.00;;
38805;SDS011;25635;51.146;17.162;2023-02-28T08:06:54;16.60;;;10.40;;
38805;SDS011;25635;51.146;17.162;2023-02-28T08:09:21;16.40;;;10.60;;
38805;SDS011;25635;51.146;17.162;2023-02-28T08:11:48;13.40;;;8.90;;
38805;SDS011;25635;51.146;17.162;2023-02-28T08:14:14;15.70;;;9.50;;
38805;SDS011;25635;51.146;17.162;2023-02-28T08:16:39;15.50;;;9.50;;
38805;SDS011;25635;51.146;17.162;2023-02-28T08:19:05;16.30;;;10.50;;
38805;SDS011;25635;51.146;17.162;2023-02-28T08:21:31;19.20;;;10.20;;
38805;SDS011;25635;51.146;17.162;2023-02-28T08:23:59;16.30;;;9.70;;
38805;SDS011;25635;51.146;17.162;2023-02-28T08:26:25;18.20;;;10.40;;
38805;SDS011;25635;51.146;17.162;2023-02-28T08:28:51;15.30;;;9.90;;
38805;SDS011;25635;51.146;17.162;2023-02-28T08:31:17;15.50;;;9.90;;
38805;SDS011;25635;51.146;17.162;2023-02-28T08:33:44;17.30;;;9.80;;
38805;SDS011;25635;51.146;17.162;2023-02-28T08:36:10;18.10;;;10.70;;
38805;SDS011;25635;51.146;17.162;2023-02-28T08:38:37;17.90;;;11.30;;
